sensor_id;sensor_type;location;lat;lon;timestamp;pressure;altitude;pressure_sealevel;temperature;humidity
72423;BME280;60413;55.658;37.498;2023-01-25T00:01:12;100417.66;;;-1.60;100.00
72423;BME280;60413;55.658;37.498;2023-01-25T00:03:38;100421.84;;;-1.59;100.00
72423;BME280;60413;55.658;37.498;2023-01-25T00:06:04;100427.75;;;-1.47;100.00
72423;BME280;60413;55.658;37.498;2023-01-25T00:08:33;100398.16;;;-1.64;100.00
72423;BME280;60413;55.658;37.498;2023-01-25T00:11:00;100381.94;;;-1.66;100.00
72423;BME280;60413;55.658;37.498;2023-01-25T00:13:35;100369.66;;;-1.74;100.00
72423;BME280;60413;55.658;37.498;2023-01-25T00:16:02;100413.09;;;-1.68;100.00
72423;BME280;60413;55.658;37.498;2023-01-25T00:18:33;100360.22;;;-2.06;100.00
72423;BME280;60413;55.658;37.498;2023-01-25T00:21:19;100391.47;;;-1.88;100.00
72423;BME280;60413;55.658;37.498;2023-01-25T00:23:52;100371.19;;;-1.93;100.00
72423;BME280;60413;55.658;37.498;2023-01-25T00:26:24;100358.19;;;-2.02;100.00
72423;BME280;60413;55.658;37.498;2023-01-25T00:28:54;100360.22;;;-1.85;100.00
72423;BME280;60413;55.658;37.498;2023-01-25T00:39:20;100367.38;;;-1.68;100.00
72423;BME280;60413;55.658;37.498;2023-01-25T00:41:46;100345.59;;;-1.75;100.00
72423;BME280;60413;55.658;37.498;2023-01-25T00:44:14;100377.41;;;-1.53;100.00
72423;BME280;60413;55.658;37.498;2023-01-25T00:46:40;100328.97;;;-1.72;100.00
72423;BME280;60413;55.658;37.498;2023-01-25T00:49:07;100390.00;;;-1.29;100.00
72423;BME280;60413;55.658;37.498;2023-01-25T00:51:46;100408.66;;;-1.25;100.00
72423;BME280;60413;55.658;37.498;2023-01-25T00:54:12;100373.78;;;-1.41;100.00
72423;BME280;60413;55.658;37.498;2023-01-25T00:59:43;100354.56;;;-1.48;100.00
72423;BME280;60413;55.658;37.498;2023-01-25T01:02:31;100385.25;;;-1.24;100.00
72423;BME280;60413;55.658;37.498;2023-01-25T01:05:09;100341.84;;;-1.61;100.00
72423;BME280;60413;55.658;37.498;2023-01-25T01:07:37;100321.38;;;-1.74;100.00
72423;BME280;60413;55.658;37.498;2023-01-25T01:10:04;100334.75;;;-1.69;100.00
72423;BME280;60413;55.658;37.498;2023-01-25T01:12:30;100387.53;;;-1.40;100.00
72423;BME280;60413;55.658;37.498;2023-01-25T01:14:57;100359.16;;;-1.52;100.00
72423;BME280;60413;55.658;37.498;2023-01-25T01:17:23;100391.50;;;-1.36;100.00
72423;BME280;60413;55.658;37.498;2023-01-25T01:19:50;100348.44;;;-1.47;100.00
72423;BME280;60413;55.658;37.498;2023-01-25T01:22:16;100317.84;;;-1.73;100.00
72423;BME280;60413;55.658;37.498;2023-01-25T01:24:42;100322.75;;;-1.70;100.00
72423;BME280;60413;55.658;37.498;2023-01-25T01:27:09;100310.63;;;-1.69;100.00
72423;BME280;60413;55.658;37.498;2023-01-25T01:29:35;100357.31;;;-1.40;100.00
72423;BME280;60413;55.658;37.498;2023-01-25T01:32:02;100297.94;;;-1.82;100.00
72423;BME280;60413;55.658;37.498;2023-01-25T01:34:31;100346.88;;;-1.59;100.00
72423;BME280;60413;55.658;37.498;2023-01-25T01:36:57;100374.59;;;-1.40;100.00
72423;BME280;60413;55.658;37.498;2023-01-25T01:39:24;100359.91;;;-1.40;100.00
72423;BME280;60413;55.658;37.498;2023-01-25T01:41:56;100277.09;;;-1.90;100.00
72423;BME280;60413;55.658;37.498;2023-01-25T01:44:56;100282.28;;;-1.90;100.00
72423;BME280;60413;55.658;37.498;2023-01-25T01:50:20;100346.53;;;-1.45;100.00
72423;BME280;60413;55.658;37.498;2023-01-25T01:52:50;100331.78;;;-1.54;100.00
72423;BME280;60413;55.658;37.498;2023-01-25T01:55:19;100309.31;;;-1.63;100.00
72423;BME280;60413;55.658;37.498;2023-01-25T01:57:52;100288.22;;;-1.69;100.00
72423;BME280;60413;55.658;37.498;2023-01-25T02:00:26;100299.53;;;-1.60;100.00
72423;BME280;60413;55.658;37.498;2023-01-25T02:02:54;100322.47;;;-1.36;100.00
72423;BME280;60413;55.658;37.498;2023-01-25T02:05:28;100332.44;;;-1.31;100.00
72423;BME280;60413;55.658;37.498;2023-01-25T02:07:56;100322.19;;;-1.42;100.00
72423;BME280;60413;55.658;37.498;2023-01-25T02:10:25;100343.59;;;-1.31;100.00
72423;BME280;60413;55.658;37.498;2023-01-25T02:12:55;100302.00;;;-1.58;100.00
72423;BME280;60413;55.658;37.498;2023-01-25T02:15:45;100333.78;;;-1.37;100.00
72423;BME280;60413;55.658;37.498;2023-01-25T02:18:12;100292.97;;;-1.64;100.00
72423;BME280;60413;55.658;37.498;2023-01-25T02:20:43;100306.25;;;-1.47;100.00
72423;BME280;60413;55.658;37.498;2023-01-25T02:23:46;100338.00;;;-1.36;100.00
72423;BME280;60413;55.658;37.498;2023-01-25T02:26:15;100340.56;;;-1.36;100.00
72423;BME280;60413;55.658;37.498;2023-01-25T02:28:50;100341.13;;;-1.32;100.00
72423;BME280;60413;55.658;37.498;2023-01-25T02:31:22;100318.78;;;-1.43;100.00
72423;BME280;60413;55.658;37.498;2023-01-25T02:33:48;100335.66;;;-1.39;100.00
72423;BME280;60413;55.658;37.498;2023-01-25T02:36:24;100333.06;;;-1.39;100.00
72423;BME280;60413;55.658;37.498;2023-01-25T02:41:32;100345.19;;;-1.39;100.00
72423;BME280;60413;55.658;37.498;2023-01-25T02:44:01;100327.06;;;-1.49;100.00
72423;BME280;60413;55.658;37.498;2023-01-25T02:46:34;100341.00;;;-1.40;100.00
72423;BME280;60413;55.658;37.498;2023-01-25T02:49:01;100332.13;;;-1.38;100.00
72423;BME280;60413;55.658;37.498;2023-01-25T02:51:30;100330.78;;;-1.42;100.00
72423;BME280;60413;55.658;37.498;2023-01-25T02:53:57;100331.84;;;-1.44;100.00
72423;BME280;60413;55.658;37.498;2023-01-25T02:56:24;100346.97;;;-1.40;100.00
72423;BME280;60413;55.658;37.498;2023-01-25T02:58:50;100344.13;;;-1.37;100.00
72423;BME280;60413;55.658;37.498;2023-01-25T03:01:20;100346.72;;;-1.37;100.00
72423;BME280;60413;55.658;37.498;2023-01-25T03:04:01;100306.59;;;-1.62;100.00
72423;BME280;60413;55.658;37.498;2023-01-25T03:06:27;100317.25;;;-1.55;100.00
72423;BME280;60413;55.658;37.498;2023-01-25T03:08:53;100328.81;;;-1.50;100.00
72423;BME280;60413;55.658;37.498;2023-01-25T03:11:19;100345.88;;;-1.37;100.00
72423;BME280;60413;55.658;37.498;2023-01-25T03:13:45;100342.09;;;-1.33;100.00
72423;BME280;60413;55.658;37.498;2023-01-25T03:16:12;100338.81;;;-1.35;100.00
72423;BME280;60413;55.658;37.498;2023-01-25T03:18:41;100326.72;;;-1.35;100.00
72423;BME280;60413;55.658;37.498;2023-01-25T03:21:09;100326.72;;;-1.35;100.00
72423;BME280;60413;55.658;37.498;2023-01-25T03:23:38;100312.69;;;-1.42;100.00
72423;BME280;60413;55.658;37.498;2023-01-25T03:28:40;100300.69;;;-1.43;100.00
72423;BME280;60413;55.658;37.498;2023-01-25T03:31:08;100310.09;;;-1.42;100.00
72423;BME280;60413;55.658;37.498;2023-01-25T03:33:35;100301.63;;;-1.44;100.00
72423;BME280;60413;55.658;37.498;2023-01-25T03:36:02;100301.50;;;-1.42;100.00
72423;BME280;60413;55.658;37.498;2023-01-25T03:38:29;100310.72;;;-1.50;100.00
72423;BME280;60413;55.658;37.498;2023-01-25T03:40:57;100307.84;;;-1.56;100.00
72423;BME280;60413;55.658;37.498;2023-01-25T03:43:24;100305.38;;;-1.58;100.00
72423;BME280;60413;55.658;37.498;2023-01-25T03:45:58;100309.78;;;-1.48;100.00
72423;BME280;60413;55.658;37.498;2023-01-25T03:48:26;100312.53;;;-1.40;100.00
72423;BME280;60413;55.658;37.498;2023-01-25T03:50:55;100310.09;;;-1.42;100.00
72423;BME280;60413;55.658;37.498;2023-01-25T03:53:22;100322.47;;;-1.36;100.00
72423;BME280;60413;55.658;37.498;2023-01-25T03:56:07;100318.28;;;-1.37;100.00
72423;BME280;60413;55.658;37.498;2023-01-25T03:58:36;100315.69;;;-1.37;100.00
72423;BME280;60413;55.658;37.498;2023-01-25T04:01:02;100312.09;;;-1.45;100.00
72423;BME280;60413;55.658;37.498;2023-01-25T04:03:29;100293.28;;;-1.57;100.00
72423;BME280;60413;55.658;37.498;2023-01-25T04:05:56;100330.44;;;-1.58;100.00
72423;BME280;60413;55.658;37.498;2023-01-25T04:08:22;100301.91;;;-1.78;100.00
72423;BME280;60413;55.658;37.498;2023-01-25T04:10:54;100288.84;;;-1.76;100.00
72423;BME280;60413;55.658;37.498;2023-01-25T04:13:23;100329.63;;;-1.49;100.00
72423;BME280;60413;55.658;37.498;2023-01-25T04:15:50;100273.09;;;-1.73;100.00
72423;BME280;60413;55.658;37.498;2023-01-25T04:18:33;100273.78;;;-1.71;100.00
72423;BME280;60413;55.658;37.498;2023-01-25T04:20:59;100320.00;;;-1.37;100.00
72423;BME280;60413;55.658;37.498;2023-01-25T04:23:26;100270.97;;;-1.58;100.00
72423;BME280;60413;55.658;37.498;2023-01-25T04:26:02;100304.63;;;-1.39;100.00
72423;BME280;60413;55.658;37.498;2023-01-25T04:28:32;100280.88;;;-1.63;100.00
72423;BME280;60413;55.658;37.498;2023-01-25T04:31:00;100258.66;;;-1.76;100.00
72423;BME280;60413;55.658;37.498;2023-01-25T04:33:33;100320.09;;;-1.58;100.00
72423;BME280;60413;55.658;37.498;2023-01-25T04:36:00;100322.50;;;-1.66;100.00
72423;BME280;60413;55.658;37.498;2023-01-25T04:38:26;100310.34;;;-1.76;100.00
72423;BME280;60413;55.658;37.498;2023-01-25T04:40:53;100275.16;;;-1.98;100.00
72423;BME280;60413;55.658;37.498;2023-01-25T04:43:20;100298.38;;;-1.77;100.00
72423;BME280;60413;55.658;37.498;2023-01-25T04:45:48;100308.31;;;-1.72;100.00
72423;BME280;60413;55.658;37.498;2023-01-25T04:48:27;100278.16;;;-1.93;100.00
72423;BME280;60413;55.658;37.498;2023-01-25T04:50:58;100326.69;;;-1.65;100.00
72423;BME280;60413;55.658;37.498;2023-01-25T04:53:25;100303.41;;;-1.75;100.00
72423;BME280;60413;55.658;37.498;2023-01-25T04:55:53;100303.38;;;-1.85;100.00
72423;BME280;60413;55.658;37.498;2023-01-25T04:58:19;100307.56;;;-1.84;100.00
72423;BME280;60413;55.658;37.498;2023-01-25T05:00:49;100303.81;;;-1.80;100.00
72423;BME280;60413;55.658;37.498;2023-01-25T05:03:15;100313.09;;;-1.68;100.00
72423;BME280;60413;55.658;37.498;2023-01-25T05:05:46;100321.09;;;-1.71;100.00
72423;BME280;60413;55.658;37.498;2023-01-25T05:08:15;100323.56;;;-1.69;100.00
72423;BME280;60413;55.658;37.498;2023-01-25T05:10:41;100333.78;;;-1.68;100.00
72423;BME280;60413;55.658;37.498;2023-01-25T05:13:34;100314.44;;;-1.73;100.00
72423;BME280;60413;55.658;37.498;2023-01-25T05:16:20;100309.78;;;-1.79;100.00
72423;BME280;60413;55.658;37.498;2023-01-25T05:18:46;100323.69;;;-1.71;100.00
72423;BME280;60413;55.658;37.498;2023-01-25T05:21:17;100329.28;;;-1.65;100.00
72423;BME280;60413;55.658;37.498;2023-01-25T05:24:02;100310.09;;;-1.73;100.00
72423;BME280;60413;55.658;37.498;2023-01-25T05:29:20;100318.81;;;-1.74;100.00
72423;BME280;60413;55.658;37.498;2023-01-25T05:31:56;100292.34;;;-1.87;100.00
72423;BME280;60413;55.658;37.498;2023-01-25T05:34:25;100288.25;;;-1.90;100.00
72423;BME280;60413;55.658;37.498;2023-01-25T05:36:52;100337.31;;;-1.69;100.00
72423;BME280;60413;55.658;37.498;2023-01-25T05:39:21;100305.59;;;-2.01;100.00
72423;BME280;60413;55.658;37.498;2023-01-25T05:41:51;100299.38;;;-2.20;100.00
72423;BME280;60413;55.658;37.498;2023-01-25T05:44:17;100306.16;;;-2.19;100.00
72423;BME280;60413;55.658;37.498;2023-01-25T05:46:46;100306.78;;;-2.06;100.00
72423;BME280;60413;55.658;37.498;2023-01-25T05:49:14;100289.34;;;-2.13;100.00
72423;BME280;60413;55.658;37.498;2023-01-25T05:51:46;100307.84;;;-1.87;100.00
72423;BME280;60413;55.658;37.498;2023-01-25T05:54:15;100285.78;;;-1.91;100.00
72423;BME280;60413;55.658;37.498;2023-01-25T05:56:49;100267.53;;;-1.99;100.00
72423;BME280;60413;55.658;37.498;2023-01-25T05:59:17;100285.41;;;-1.87;100.00
72423;BME280;60413;55.658;37.498;2023-01-25T06:02:04;100279.03;;;-1.82;100.00
72423;BME280;60413;55.658;37.498;2023-01-25T06:04:31;100296.72;;;-1.78;100.00
72423;BME280;60413;55.658;37.498;2023-01-25T06:06:57;100315.94;;;-1.71;100.00
72423;BME280;60413;55.658;37.498;2023-01-25T06:09:23;100333.09;;;-1.70;100.00
72423;BME280;60413;55.658;37.498;2023-01-25T06:11:50;100296.97;;;-1.81;100.00
72423;BME280;60413;55.658;37.498;2023-01-25T06:17:58;100282.69;;;-1.85;100.00
72423;BME280;60413;55.658;37.498;2023-01-25T06:21:18;100272.81;;;-2.01;100.00
72423;BME280;60413;55.658;37.498;2023-01-25T06:23:56;100313.16;;;-1.79;100.00
72423;BME280;60413;55.658;37.498;2023-01-25T06:26:22;100313.03;;;-1.77;100.00
72423;BME280;60413;55.658;37.498;2023-01-25T06:28:48;100301.47;;;-1.83;100.00
72423;BME280;60413;55.658;37.498;2023-01-25T06:31:16;100310.88;;;-1.72;100.00
72423;BME280;60413;55.658;37.498;2023-01-25T06:33:45;100306.44;;;-1.70;100.00
72423;BME280;60413;55.658;37.498;2023-01-25T06:36:19;100305.78;;;-1.62;100.00
72423;BME280;60413;55.658;37.498;2023-01-25T06:39:34;100293.22;;;-1.77;100.00
72423;BME280;60413;55.658;37.498;2023-01-25T06:42:01;100319.25;;;-1.59;100.00
72423;BME280;60413;55.658;37.498;2023-01-25T06:44:35;100315.97;;;-1.61;100.00
72423;BME280;60413;55.658;37.498;2023-01-25T06:47:01;100319.84;;;-1.55;100.00
72423;BME280;60413;55.658;37.498;2023-01-25T06:49:29;100292.50;;;-1.79;100.00
72423;BME280;60413;55.658;37.498;2023-01-25T06:51:55;100291.56;;;-1.78;100.00
72423;BME280;60413;55.658;37.498;2023-01-25T06:54:21;100283.38;;;-1.83;100.00
72423;BME280;60413;55.658;37.498;2023-01-25T06:56:47;100281.72;;;-1.84;100.00
72423;BME280;60413;55.658;37.498;2023-01-25T06:59:16;100311.06;;;-1.64;100.00
72423;BME280;60413;55.658;37.498;2023-01-25T07:01:42;100293.09;;;-1.75;100.00
72423;BME280;60413;55.658;37.498;2023-01-25T07:04:13;100301.13;;;-1.69;100.00
72423;BME280;60413;55.658;37.498;2023-01-25T07:06:39;100292.97;;;-1.74;100.00
72423;BME280;60413;55.658;37.498;2023-01-25T07:09:08;100319.41;;;-1.51;100.00
72423;BME280;60413;55.658;37.498;2023-01-25T07:11:35;100284.06;;;-1.81;100.00
72423;BME280;60413;55.658;37.498;2023-01-25T07:14:01;100285.59;;;-1.78;100.00
72423;BME280;60413;55.658;37.498;2023-01-25T07:16:45;100331.53;;;-1.51;100.00
72423;BME280;60413;55.658;37.498;2023-01-25T07:19:11;100293.09;;;-1.65;100.00
72423;BME280;60413;55.658;37.498;2023-01-25T07:21:40;100288.63;;;-1.63;100.00
72423;BME280;60413;55.658;37.498;2023-01-25T07:24:06;100328.56;;;-1.46;100.00
72423;BME280;60413;55.658;37.498;2023-01-25T07:26:32;100294.78;;;-1.55;100.00
72423;BME280;60413;55.658;37.498;2023-01-25T07:33:24;100301.06;;;-1.47;100.00
72423;BME280;60413;55.658;37.498;2023-01-25T07:35:50;100293.00;;;-1.54;100.00
72423;BME280;60413;55.658;37.498;2023-01-25T07:38:19;100286.22;;;-1.55;100.00
72423;BME280;60413;55.658;37.498;2023-01-25T07:40:51;100285.44;;;-1.46;100.00
72423;BME280;60413;55.658;37.498;2023-01-25T07:43:22;100287.97;;;-1.56;100.00
72423;BME280;60413;55.658;37.498;2023-01-25T07:45:58;100310.84;;;-1.51;100.00
72423;BME280;60413;55.658;37.498;2023-01-25T07:48:53;100288.69;;;-1.54;100.00
72423;BME280;60413;55.658;37.498;2023-01-25T07:52:05;100281.88;;;-1.55;100.00
72423;BME280;60413;55.658;37.498;2023-01-25T07:55:11;100289.66;;;-1.45;100.00
72423;BME280;60413;55.658;37.498;2023-01-25T07:58:16;100301.94;;;-1.27;100.00
72423;BME280;60413;55.658;37.498;2023-01-25T08:00:44;100291.72;;;-1.29;100.00
72423;BME280;60413;55.658;37.498;2023-01-25T08:03:21;100306.75;;;-1.13;100.00
72423;BME280;60413;55.658;37.498;2023-01-25T08:05:47;100276.50;;;-1.22;100.00
72423;BME280;60413;55.658;37.498;2023-01-25T08:08:14;100305.25;;;-1.06;100.00
72423;BME280;60413;55.658;37.498;2023-01-25T08:10:42;100290.28;;;-1.22;100.00
72423;BME280;60413;55.658;37.498;2023-01-25T08:13:10;100295.47;;;-1.02;100.00
72423;BME280;60413;55.658;37.498;2023-01-25T08:16:03;100293.28;;;-1.07;100.00
72423;BME280;60413;55.658;37.498;2023-01-25T08:18:29;100277.50;;;-1.14;100.00
72423;BME280;60413;55.658;37.498;2023-01-25T08:21:00;100280.06;;;-1.04;100.00
72423;BME280;60413;55.658;37.498;2023-01-25T08:23:26;100282.81;;;-0.96;100.00
72423;BME280;60413;55.658;37.498;2023-01-25T08:26:33;100274.22;;;-0.96;100.00
72423;BME280;60413;55.658;37.498;2023-01-25T08:29:25;100299.84;;;-0.64;100.00
72423;BME280;60413;55.658;37.498;2023-01-25T08:35:08;100284.44;;;-0.16;100.00
72423;BME280;60413;55.658;37.498;2023-01-25T08:37:34;100287.81;;;-0.16;100.00
72423;BME280;60413;55.658;37.498;2023-01-25T08:52:42;100274.53;;;-0.70;100.00
72423;BME280;60413;55.658;37.498;2023-01-25T08:55:20;100246.44;;;-0.84;100.00
72423;BME280;60413;55.658;37.498;2023-01-25T08:58:21;100225.47;;;-1.10;100.00
72423;BME280;60413;55.658;37.498;2023-01-25T09:05:35;100252.56;;;-0.85;100.00
72423;BME280;60413;55.658;37.498;2023-01-25T09:21:48;100224.38;;;-1.18;100.00
72423;BME280;60413;55.658;37.498;2023-01-25T09:25:17;100196.59;;;-1.35;100.00
72423;BME280;60413;55.658;37.498;2023-01-25T09:28:08;100233.78;;;-1.17;100.00
72423;BME280;60413;55.658;37.498;2023-01-25T09:31:08;100219.88;;;-1.35;100.00
72423;BME280;60413;55.658;37.498;2023-01-25T09:34:00;100193.03;;;-1.54;100.00
72423;BME280;60413;55.658;37.498;2023-01-25T09:37:29;100196.59;;;-1.35;100.00
72423;BME280;60413;55.658;37.498;2023-01-25T09:39:57;100184.53;;;-1.65;100.00
72423;BME280;60413;55.658;37.498;2023-01-25T09:45:35;100190.84;;;-1.58;100.00
72423;BME280;60413;55.658;37.498;2023-01-25T09:55:23;100173.41;;;-1.56;100.00
72423;BME280;60413;55.658;37.498;2023-01-25T09:58:29;100171.09;;;-1.59;100.00
72423;BME280;60413;55.658;37.498;2023-01-25T10:01:19;100179.03;;;-1.32;100.00
72423;BME280;60413;55.658;37.498;2023-01-25T10:04:45;100157.38;;;-1.40;100.00
72423;BME280;60413;55.658;37.498;2023-01-25T10:11:37;100155.19;;;-1.45;100.00
72423;BME280;60413;55.658;37.498;2023-01-25T10:34:48;100140.03;;;-1.79;100.00
72423;BME280;60413;55.658;37.498;2023-01-25T10:46:46;100112.59;;;-1.51;100.00
72423;BME280;60413;55.658;37.498;2023-01-25T11:05:41;100074.38;;;-1.66;100.00
72423;BME280;60413;55.658;37.498;2023-01-25T11:08:50;100105.66;;;-1.50;100.00
72423;BME280;60413;55.658;37.498;2023-01-25T11:22:59;100076.94;;;-1.27;100.00
72423;BME280;60413;55.658;37.498;2023-01-25T12:16:10;100070.28;;;-1.30;100.00
72423;BME280;60413;55.658;37.498;2023-01-25T12:31:49;100058.03;;;-1.38;100.00
72423;BME280;60413;55.658;37.498;2023-01-25T12:49:10;100044.28;;;-1.48;100.00
72423;BME280;60413;55.658;37.498;2023-01-25T12:51:43;100039.00;;;-1.46;100.00
72423;BME280;60413;55.658;37.498;2023-01-25T12:54:39;100015.84;;;-1.48;100.00
72423;BME280;60413;55.658;37.498;2023-01-25T13:01:48;100027.94;;;-1.39;100.00
72423;BME280;60413;55.658;37.498;2023-01-25T13:19:49;99994.09;;;-1.55;100.00
72423;BME280;60413;55.658;37.498;2023-01-25T13:23:31;100017.91;;;-1.42;100.00
72423;BME280;60413;55.658;37.498;2023-01-25T13:27:31;100003.88;;;-1.49;100.00
72423;BME280;60413;55.658;37.498;2023-01-25T13:30:50;99974.78;;;-1.61;100.00
72423;BME280;60413;55.658;37.498;2023-01-25T14:21:35;99892.13;;;-2.19;100.00
72423;BME280;60413;55.658;37.498;2023-01-25T14:37:43;99931.81;;;-2.01;100.00
72423;BME280;60413;55.658;37.498;2023-01-25T14:40:10;99933.59;;;-1.92;100.00
72423;BME280;60413;55.658;37.498;2023-01-25T14:42:57;99923.94;;;-1.90;100.00
72423;BME280;60413;55.658;37.498;2023-01-25T14:45:23;99913.75;;;-2.01;100.00
72423;BME280;60413;55.658;37.498;2023-01-25T14:47:52;99899.47;;;-2.25;100.00
72423;BME280;60413;55.658;37.498;2023-01-25T14:50:34;99931.28;;;-2.14;100.00
72423;BME280;60413;55.658;37.498;2023-01-25T14:55:45;99898.28;;;-2.30;100.00
72423;BME280;60413;55.658;37.498;2023-01-25T14:58:19;99903.56;;;-2.22;100.00
72423;BME280;60413;55.658;37.498;2023-01-25T15:01:40;99930.34;;;-2.13;100.00
72423;BME280;60413;55.658;37.498;2023-01-25T15:04:11;99927.34;;;-2.09;100.00
72423;BME280;60413;55.658;37.498;2023-01-25T15:06:45;99917.97;;;-2.19;100.00
72423;BME280;60413;55.658;37.498;2023-01-25T15:09:35;99939.72;;;-1.83;100.00
72423;BME280;60413;55.658;37.498;2023-01-25T15:12:05;99942.69;;;-1.88;100.00
72423;BME280;60413;55.658;37.498;2023-01-25T15:14:31;99922.59;;;-1.94;100.00
72423;BME280;60413;55.658;37.498;2023-01-25T15:16:57;99892.13;;;-2.19;100.00
72423;BME280;60413;55.658;37.498;2023-01-25T15:19:28;99935.91;;;-1.98;100.00
72423;BME280;60413;55.658;37.498;2023-01-25T15:21:58;99931.03;;;-2.01;100.00
72423;BME280;60413;55.658;37.498;2023-01-25T15:24:26;99939.44;;;-1.99;100.00
72423;BME280;60413;55.658;37.498;2023-01-25T15:26:56;99893.66;;;-2.27;100.00
72423;BME280;60413;55.658;37.498;2023-01-25T15:29:24;99920.00;;;-2.13;100.00
72423;BME280;60413;55.658;37.498;2023-01-25T15:35:18;99922.31;;;-2.10;100.00
72423;BME280;60413;55.658;37.498;2023-01-25T15:37:47;99906.97;;;-2.21;100.00
72423;BME280;60413;55.658;37.498;2023-01-25T15:40:14;99875.97;;;-2.31;100.00
72423;BME280;60413;55.658;37.498;2023-01-25T15:42:49;99920.81;;;-2.13;100.00
72423;BME280;60413;55.658;37.498;2023-01-25T15:45:15;99912.81;;;-2.19;100.00
72423;BME280;60413;55.658;37.498;2023-01-25T15:47:44;99881.97;;;-2.40;100.00
72423;BME280;60413;55.658;37.498;2023-01-25T15:50:16;99859.00;;;-2.44;100.00
72423;BME280;60413;55.658;37.498;2023-01-25T15:52:46;99862.25;;;-2.32;100.00
72423;BME280;60413;55.658;37.498;2023-01-25T15:55:15;99873.13;;;-2.28;100.00
72423;BME280;60413;55.658;37.498;2023-01-25T15:57:42;99871.75;;;-2.22;100.00
72423;BME280;60413;55.658;37.498;2023-01-25T16:00:15;99886.31;;;-2.12;100.00
72423;BME280;60413;55.658;37.498;2023-01-25T16:02:42;99895.13;;;-2.14;100.00
72423;BME280;60413;55.658;37.498;2023-01-25T16:05:08;99852.88;;;-2.23;100.00
72423;BME280;60413;55.658;37.498;2023-01-25T16:07:37;99855.44;;;-2.23;100.00
72423;BME280;60413;55.658;37.498;2023-01-25T16:10:27;99886.16;;;-2.10;100.00
72423;BME280;60413;55.658;37.498;2023-01-25T16:12:52;99871.22;;;-2.26;100.00
72423;BME280;60413;55.658;37.498;2023-01-25T16:15:18;99847.03;;;-2.45;100.00
72423;BME280;60413;55.658;37.498;2023-01-25T16:17:44;99869.03;;;-2.21;100.00
72423;BME280;60413;55.658;37.498;2023-01-25T16:20:18;99851.78;;;-2.30;100.00
72423;BME280;60413;55.658;37.498;2023-01-25T16:22:47;99894.06;;;-2.12;100.00
72423;BME280;60413;55.658;37.498;2023-01-25T16:25:16;99878.81;;;-2.15;100.00
72423;BME280;60413;55.658;37.498;2023-01-25T16:27:42;99847.97;;;-2.26;100.00
72423;BME280;60413;55.658;37.498;2023-01-25T16:30:15;99848.25;;;-2.29;100.00
72423;BME280;60413;55.658;37.498;2023-01-25T16:32:46;99849.06;;;-2.38;100.00
72423;BME280;60413;55.658;37.498;2023-01-25T16:35:17;99837.09;;;-2.49;100.00
72423;BME280;60413;55.658;37.498;2023-01-25T16:37:43;99840.38;;;-2.28;100.00
72423;BME280;60413;55.658;37.498;2023-01-25T16:40:32;99857.75;;;-2.10;100.00
72423;BME280;60413;55.658;37.498;2023-01-25T16:43:04;99863.47;;;-2.07;100.00
72423;BME280;60413;55.658;37.498;2023-01-25T16:45:36;99834.94;;;-2.25;100.00
72423;BME280;60413;55.658;37.498;2023-01-25T16:48:04;99829.09;;;-2.27;100.00
72423;BME280;60413;55.658;37.498;2023-01-25T16:50:43;99855.97;;;-2.10;100.00
72423;BME280;60413;55.658;37.498;2023-01-25T16:53:19;99813.34;;;-2.53;100.00
72423;BME280;60413;55.658;37.498;2023-01-25T16:55:52;99795.97;;;-2.61;100.00
72423;BME280;60413;55.658;37.498;2023-01-25T16:58:36;99818.91;;;-2.48;100.00
72423;BME280;60413;55.658;37.498;2023-01-25T17:04:10;99792.56;;;-2.51;100.00
72423;BME280;60413;55.658;37.498;2023-01-25T17:06:43;99812.53;;;-2.44;100.00
72423;BME280;60413;55.658;37.498;2023-01-25T17:09:16;99791.88;;;-2.63;100.00
72423;BME280;60413;55.658;37.498;2023-01-25T17:11:45;99812.81;;;-2.47;100.00
72423;BME280;60413;55.658;37.498;2023-01-25T17:14:15;99837.38;;;-2.43;100.00
72423;BME280;60413;55.658;37.498;2023-01-25T17:16:42;99809.28;;;-2.65;100.00
72423;BME280;60413;55.658;37.498;2023-01-25T17:19:13;99852.19;;;-2.45;100.00
72423;BME280;60413;55.658;37.498;2023-01-25T17:21:43;99820.53;;;-2.56;100.00
72423;BME280;60413;55.658;37.498;2023-01-25T17:24:13;99844.84;;;-2.39;100.00
72423;BME280;60413;55.658;37.498;2023-01-25T17:26:40;99842.00;;;-2.46;100.00
72423;BME280;60413;55.658;37.498;2023-01-25T17:29:14;99805.47;;;-2.61;100.00
72423;BME280;60413;55.658;37.498;2023-01-25T17:31:40;99800.16;;;-2.69;100.00
72423;BME280;60413;55.658;37.498;2023-01-25T17:34:14;99833.84;;;-2.42;100.00
72423;BME280;60413;55.658;37.498;2023-01-25T17:37:07;99813.88;;;-2.59;100.00
72423;BME280;60413;55.658;37.498;2023-01-25T17:39:34;99786.19;;;-2.76;100.00
72423;BME280;60413;55.658;37.498;2023-01-25T17:42:00;99816.31;;;-2.57;100.00
72423;BME280;60413;55.658;37.498;2023-01-25T17:48:45;99825.56;;;-2.65;100.00
72423;BME280;60413;55.658;37.498;2023-01-25T17:51:13;99833.31;;;-2.55;100.00
72423;BME280;60413;55.658;37.498;2023-01-25T17:53:43;99788.50;;;-2.83;100.00
72423;BME280;60413;55.658;37.498;2023-01-25T18:00:37;99826.66;;;-2.48;100.00
72423;BME280;60413;55.658;37.498;2023-01-25T18:03:09;99803.28;;;-2.56;100.00
72423;BME280;60413;55.658;37.498;2023-01-25T18:10:16;99805.31;;;-2.69;100.00
72423;BME280;60413;55.658;37.498;2023-01-25T18:12:45;99773.69;;;-3.01;100.00
72423;BME280;60413;55.658;37.498;2023-01-25T18:15:15;99790.78;;;-2.90;100.00
72423;BME280;60413;55.658;37.498;2023-01-25T18:17:46;99762.13;;;-3.06;100.00
72423;BME280;60413;55.658;37.498;2023-01-25T18:20:13;99806.00;;;-2.87;100.00
72423;BME280;60413;55.658;37.498;2023-01-25T18:22:43;99807.50;;;-2.94;100.00
72423;BME280;60413;55.658;37.498;2023-01-25T18:25:34;99781.00;;;-2.96;100.00